Time;durP1;ratioP1;P1;durP2;ratioP2;P2;SDS_P1;SDS_P2;PMS_P1;PMS_P2;Temp;Humidity;BMP_temperature;BMP_pressure;BME280_temperature;BME280_humidity;BME280_pressure;Samples;Min_cycle;Max_cycle;Signal;HPM_P1;HPM_P2
2022/12/25 00:00:00;;;;;;;3.73;3.40;;;;;;;10.77;81.16;99685.31;4992367;28;20204;-69
2022/12/25 00:02:28;;;;;;;3.03;2.83;;;;;;;10.83;80.83;99684.56;4992212;28;20671;-69
2022/12/25 00:04:55;;;;;;;2.97;2.77;;;;;;;10.85;80.31;99679.88;4992373;28;20197;-69
2022/12/25 00:07:21;;;;;;;3.83;3.57;;;;;;;10.90;80.60;99682.75;4992219;28;20200;-69
2022/12/25 00:09:48;;;;;;;3.17;2.97;;;;;;;11.00;79.61;99691.22;4991993;28;20194;-69
2022/12/25 00:12:15;;;;;;;2.93;2.73;;;;;;;11.00;79.05;99686.72;4992086;28;20729;-69
2022/12/25 00:14:41;;;;;;;3.00;2.80;;;;;;;10.92;79.15;99686.06;4996333;28;20190;-69
2022/12/25 00:17:09;;;;;;;3.80;3.50;;;;;;;10.91;78.60;99687.88;4995705;28;20222;-69
2022/12/25 00:19:36;;;;;;;3.03;2.73;;;;;;;10.89;78.10;99691.75;4995736;28;20197;-69
2022/12/25 00:22:03;;;;;;;4.90;3.27;;;;;;;10.85;77.96;99686.00;4995882;28;20232;-69
2022/12/25 00:24:29;;;;;;;3.50;2.50;;;;;;;10.97;77.24;99704.91;4995769;28;20256;-69
2022/12/25 00:26:56;;;;;;;3.00;2.70;;;;;;;10.94;77.01;99705.28;4995547;28;20208;-68
2022/12/25 00:29:23;;;;;;;3.33;2.70;;;;;;;10.99;77.20;99716.19;4995658;28;20192;-68
2022/12/25 00:31:49;;;;;;;3.27;2.40;;;;;;;11.04;77.08;99717.22;4995961;28;20200;-67
2022/12/25 00:34:18;;;;;;;2.77;2.57;;;;;;;11.07;76.67;99713.38;4995296;28;20667;-68
2022/12/25 00:36:44;;;;;;;2.57;2.47;;;;;;;11.08;76.55;99715.81;4995808;28;20285;-67
2022/12/25 00:39:11;;;;;;;2.57;2.37;;;;;;;11.11;76.82;99722.56;4995596;28;20199;-68
2022/12/25 00:44:22;;;;;;;2.50;2.37;;;;;;;11.17;77.06;99726.28;4995293;28;20564;-68
2022/12/25 00:46:48;;;;;;;2.97;2.77;;;;;;;11.11;76.81;99727.88;4995662;28;20196;-68
2022/12/25 00:49:16;;;;;;;2.50;2.40;;;;;;;11.10;77.25;99726.25;4995341;28;20257;-68
2022/12/25 00:51:43;;;;;;;2.70;2.37;;;;;;;11.04;77.51;99722.53;4995184;28;20250;-69
2022/12/25 00:54:10;;;;;;;2.60;2.20;;;;;;;11.00;77.48;99723.94;4995346;28;20254;-68
2022/12/25 00:56:36;;;;;;;2.60;2.40;;;;;;;11.02;77.39;99723.75;4995281;28;20222;-68
2022/12/25 00:59:03;;;;;;;2.63;2.53;;;;;;;10.99;77.51;99729.47;4994909;28;20546;-68
2022/12/25 01:01:30;;;;;;;4.10;2.90;;;;;;;10.97;77.44;99731.47;4994945;28;20571;-68
2022/12/25 01:03:57;;;;;;;2.77;2.57;;;;;;;10.91;77.44;99725.09;4994856;28;20195;-67
2022/12/25 01:06:25;;;;;;;2.90;2.70;;;;;;;10.83;78.02;99724.41;4994909;28;20202;-68
2022/12/25 01:11:36;;;;;;;2.73;2.53;;;;;;;10.67;77.90;99735.31;4994957;28;20696;-68
2022/12/25 01:14:03;;;;;;;2.63;2.53;;;;;;;10.60;77.69;99721.97;4995475;28;20257;-67
2022/12/25 01:16:30;;;;;;;3.00;2.50;;;;;;;10.61;77.68;99726.28;4994663;28;20231;-68
2022/12/25 01:18:56;;;;;;;2.80;2.60;;;;;;;10.48;78.36;99731.47;4995229;28;20258;-68
2022/12/25 01:21:25;;;;;;;2.77;2.57;;;;;;;10.44;78.74;99730.19;4994673;28;20227;-67
2022/12/25 01:23:52;;;;;;;2.60;2.50;;;;;;;10.31;79.32;99734.53;4994365;28;20199;-68
2022/12/25 01:26:20;;;;;;;2.80;2.53;;;;;;;10.26;79.64;99736.94;4994304;28;20737;-68
2022/12/25 01:28:47;;;;;;;2.17;2.07;;;;;;;10.13;80.10;99739.47;4994312;28;20194;-67
2022/12/25 01:31:16;;;;;;;2.47;2.37;;;;;;;10.05;80.75;99740.38;4994500;28;20257;-68
2022/12/25 01:33:44;;;;;;;2.67;2.50;;;;;;;10.08;80.70;99744.47;4995386;28;20194;-68
2022/12/25 01:36:14;;;;;;;3.00;2.80;;;;;;;9.90;81.37;99736.06;4994457;28;20264;-68
2022/12/25 01:38:43;;;;;;;2.80;2.70;;;;;;;9.90;80.97;99736.91;4994690;28;20191;-68
2022/12/25 01:41:11;;;;;;;3.03;2.83;;;;;;;9.82;81.54;99728.22;4993909;28;20585;-68
2022/12/25 01:43:58;;;;;;;3.40;2.73;;;;;;;9.72;82.34;99739.13;4994363;28;20205;-68
2022/12/25 01:46:24;;;;;;;2.70;2.60;;;;;;;9.68;83.11;99737.84;4994231;28;20187;-68
2022/12/25 01:48:52;;;;;;;2.63;2.50;;;;;;;9.53;83.33;99739.69;4994047;28;20225;-68
2022/12/25 01:51:26;;;;;;;3.30;3.10;;;;;;;9.38;84.33;99740.69;4993792;28;20671;-68
2022/12/25 01:53:56;;;;;;;3.03;2.83;;;;;;;9.42;84.33;99741.97;4993997;28;20187;-69
2022/12/25 01:56:23;;;;;;;2.97;2.80;;;;;;;9.39;84.92;99737.03;4993929;28;20205;-69
2022/12/25 01:58:49;;;;;;;3.37;3.00;;;;;;;9.34;85.35;99739.38;4994135;28;20634;-68
2022/12/25 02:01:16;;;;;;;3.13;2.93;;;;;;;9.34;84.79;99742.88;4993745;28;20229;-68
2022/12/25 02:03:43;;;;;;;3.50;3.30;;;;;;;9.30;85.23;99735.47;4994154;28;20190;-68
2022/12/25 02:06:10;;;;;;;3.10;2.80;;;;;;;9.21;85.87;99733.91;4993810;28;20198;-68
2022/12/25 02:08:36;;;;;;;2.77;2.67;;;;;;;9.27;85.53;99736.66;4993662;28;20662;-68
2022/12/25 02:11:04;;;;;;;3.03;2.83;;;;;;;9.24;85.67;99730.91;4993880;28;20198;-68
2022/12/25 02:13:31;;;;;;;3.30;3.00;;;;;;;9.33;85.82;99737.75;4993608;28;20749;-68
2022/12/25 02:16:05;;;;;;;3.23;3.00;;;;;;;9.29;85.43;99742.59;4993353;28;20725;-68
2022/12/25 02:18:38;;;;;;;3.23;3.03;;;;;;;9.36;85.19;99742.69;4993703;28;20281;-68
2022/12/25 02:21:43;;;;;;;2.60;2.50;;;;;;;9.52;84.34;99738.03;4993588;28;20230;-68
2022/12/25 02:24:26;;;;;;;3.00;2.80;;;;;;;9.60;83.62;99735.28;4993124;28;20643;-68
2022/12/25 02:27:04;;;;;;;4.03;3.20;;;;;;;9.59;83.79;99732.81;4993620;28;20261;-68
2022/12/25 02:29:42;;;;;;;3.43;3.13;;;;;;;9.72;83.70;99735.66;4993440;28;20186;-68
2022/12/25 02:32:15;;;;;;;3.73;3.40;;;;;;;9.77;82.90;99731.41;4993564;28;20274;-68
2022/12/25 02:34:46;;;;;;;2.77;2.67;;;;;;;9.80;82.60;99731.06;4993414;28;20190;-68
2022/12/25 02:37:16;;;;;;;3.90;2.83;;;;;;;9.90;82.19;99738.72;4992966;28;20221;-68
2022/12/25 02:39:58;;;;;;;2.87;2.67;;;;;;;9.88;82.04;99748.69;4994120;28;20191;-69
2022/12/25 03:07:40;;;;;;;3.57;3.00;;;;;;;10.17;81.40;99752.16;4992646;28;20237;-68
2022/12/25 03:13:01;;;;;;;3.57;3.27;;;;;;;10.17;81.59;99769.94;4992776;28;20185;-68
2022/12/25 03:18:17;;;;;;;3.63;3.43;;;;;;;10.22;81.93;99767.53;4992799;28;20210;-67
2022/12/25 03:29:00;;;;;;;3.33;3.13;;;;;;;10.32;80.46;99790.13;4992569;28;20578;-69
2022/12/25 03:31:38;;;;;;;3.33;3.13;;;;;;;10.29;80.10;99794.94;4992996;28;20194;-68
2022/12/25 04:36:09;;;;;;;4.57;4.13;;;;;;;10.02;82.10;99888.50;4995605;28;20228;-68
2022/12/25 04:38:37;;;;;;;4.63;4.23;;;;;;;10.08;81.63;99899.25;4995623;28;20261;-68
2022/12/25 04:41:06;;;;;;;6.87;6.27;;;;;;;10.14;81.86;99892.41;4995144;28;20249;-68
2022/12/25 04:43:32;;;;;;;8.80;5.70;;;;;;;10.11;81.50;99898.06;4995056;28;20225;-68
2022/12/25 04:46:00;;;;;;;7.47;5.27;;;;;;;9.94;82.34;99908.00;4995197;28;20195;-68
2022/12/25 04:48:28;;;;;;;6.73;6.10;;;;;;;9.98;81.74;99903.16;4995401;28;20198;-68
2022/12/25 04:50:55;;;;;;;5.23;4.93;;;;;;;10.07;81.28;99908.22;4995165;28;20241;-68
2022/12/25 04:53:22;;;;;;;4.57;4.27;;;;;;;10.09;81.39;99911.50;4995439;28;20617;-69
2022/12/25 04:55:48;;;;;;;4.87;4.50;;;;;;;10.06;81.49;99913.72;4995093;28;20666;-69
2022/12/25 04:58:16;;;;;;;5.03;4.53;;;;;;;10.00;81.19;99912.56;4994294;28;20222;-69
2022/12/25 05:00:43;;;;;;;6.13;5.60;;;;;;;9.99;81.23;99926.03;4995256;28;20249;-68
2022/12/25 05:03:10;;;;;;;5.47;5.03;;;;;;;9.89;81.63;99917.50;4994914;28;20198;-69
2022/12/25 05:05:39;;;;;;;6.03;5.60;;;;;;;9.83;82.01;99928.84;4994926;28;20199;-68
2022/12/25 05:08:06;;;;;;;5.47;5.07;;;;;;;9.85;81.76;99924.19;4994737;28;20732;-68
2022/12/25 05:10:33;;;;;;;5.80;5.20;;;;;;;9.88;81.49;99934.41;4994785;28;20190;-69
2022/12/25 05:12:59;;;;;;;5.17;4.87;;;;;;;9.90;81.68;99929.78;4995041;28;20276;-69
2022/12/25 05:15:27;;;;;;;6.43;5.93;;;;;;;9.88;80.93;99935.25;4995702;28;20194;-69
2022/12/25 05:17:54;;;;;;;13.87;8.27;;;;;;;9.83;80.97;99936.78;4994546;28;20698;-69
2022/12/25 05:20:21;;;;;;;13.23;7.90;;;;;;;9.78;81.30;99934.69;4994741;28;20230;-69
2022/12/25 05:22:47;;;;;;;8.17;6.10;;;;;;;9.77;81.55;99948.13;4994347;28;20194;-67
2022/12/25 05:25:14;;;;;;;7.40;5.70;;;;;;;9.59;81.42;99929.88;4994576;28;20261;-69
2022/12/25 05:27:41;;;;;;;5.57;5.07;;;;;;;9.74;81.28;99964.41;4994455;28;20198;-68
2022/12/25 05:30:09;;;;;;;5.97;5.47;;;;;;;9.70;81.36;99957.81;4994270;28;20256;-68
2022/12/25 05:32:37;;;;;;;8.27;5.87;;;;;;;9.59;81.59;99960.88;4994201;28;20202;-68
2022/12/25 05:35:04;;;;;;;5.53;4.80;;;;;;;9.49;82.45;99960.31;4994606;28;20256;-68
2022/12/25 05:37:30;;;;;;;4.90;4.60;;;;;;;9.13;82.64;99930.09;4994201;28;20765;-68
2022/12/25 05:39:58;;;;;;;5.23;4.80;;;;;;;9.32;82.78;99953.47;4995442;28;20604;-69
2022/12/25 05:42:24;;;;;;;5.67;5.17;;;;;;;9.35;83.53;99955.78;4994195;28;20309;-68
2022/12/25 05:44:51;;;;;;;5.30;4.80;;;;;;;9.37;83.76;99961.72;4994531;28;20249;-68
2022/12/25 05:47:18;;;;;;;6.63;5.17;;;;;;;9.34;84.12;99962.06;4994298;28;20277;-68
2022/12/25 05:49:46;;;;;;;5.40;5.00;;;;;;;9.40;84.04;99982.59;4994306;28;20342;-68
2022/12/25 05:52:12;;;;;;;5.33;5.03;;;;;;;9.42;83.41;99986.72;4994041;28;20198;-68
2022/12/25 05:54:39;;;;;;;6.50;5.90;;;;;;;9.39;83.75;99988.91;4993852;28;20252;-69
2022/12/25 05:57:06;;;;;;;10.10;8.23;;;;;;;9.38;83.59;99995.19;4993714;28;20191;-69
2022/12/25 05:59:33;;;;;;;17.80;8.13;;;;;;;9.41;83.84;100000.97;4993557;28;20230;-69
2022/12/25 06:02:00;;;;;;;10.70;7.77;;;;;;;9.40;83.46;100009.91;4993827;28;20252;-69
2022/12/25 06:04:27;;;;;;;7.87;6.77;;;;;;;9.42;83.71;100017.69;4993644;28;20198;-68
2022/12/25 06:06:55;;;;;;;10.83;6.97;;;;;;;9.24;83.80;100025.09;4994053;28;20210;-69
2022/12/25 06:09:22;;;;;;;7.77;6.97;;;;;;;9.07;84.59;100032.28;4993543;28;20202;-69
2022/12/25 06:11:48;;;;;;;8.00;7.17;;;;;;;9.19;84.77;100035.41;4992748;28;20198;-69
2022/12/25 06:14:15;;;;;;;7.77;6.20;;;;;;;9.24;85.13;100031.22;4993832;28;20265;-69
2022/12/25 06:16:42;;;;;;;8.27;7.53;;;;;;;9.24;84.72;100031.22;4993851;28;20252;-69
2022/12/25 06:19:09;;;;;;;7.97;7.43;;;;;;;9.31;84.96;100040.13;4993231;28;20226;-69
2022/12/25 06:21:35;;;;;;;8.90;7.30;;;;;;;9.38;84.09;100038.44;4994085;28;20238;-69
2022/12/25 06:24:04;;;;;;;11.73;7.57;;;;;;;9.50;84.35;100041.50;4993453;28;20194;-69
2022/12/25 06:26:30;;;;;;;9.30;7.27;;;;;;;9.53;84.05;100026.09;4994166;28;20616;-69
2022/12/25 06:28:57;;;;;;;6.80;6.20;;;;;;;9.61;83.38;100043.75;4992832;28;20202;-68
2022/12/25 06:31:24;;;;;;;7.37;6.67;;;;;;;9.72;83.00;100046.00;4992952;28;20621;-69
2022/12/25 06:33:51;;;;;;;9.37;6.93;;;;;;;9.59;82.70;100045.75;4993406;28;20233;-69
2022/12/25 06:36:21;;;;;;;6.80;6.00;;;;;;;9.73;82.77;100052.94;4992609;28;20191;-68
2022/12/25 06:38:48;;;;;;;6.03;5.07;;;;;;;9.87;81.87;100062.78;4992761;28;20706;-68
2022/12/25 06:41:18;;;;;;;5.80;5.13;;;;;;;10.14;81.00;100064.94;4993659;28;20249;-69
2022/12/25 06:43:48;;;;;;;6.10;5.27;;;;;;;10.41;81.26;100056.38;4992888;28;20190;-70
2022/12/25 06:46:15;;;;;;;6.03;5.53;;;;;;;10.73;79.41;100077.28;4993430;28;20186;-69
2022/12/25 06:48:46;;;;;;;5.83;5.33;;;;;;;10.97;78.48;100087.63;4993192;28;20257;-68
2022/12/25 06:51:13;;;;;;;6.53;5.93;;;;;;;11.12;76.42;100091.13;4993083;28;20559;-68
2022/12/25 06:53:40;;;;;;;6.20;5.60;;;;;;;11.18;75.94;100095.69;4992532;28;20214;-66
2022/12/25 06:56:09;;;;;;;7.23;6.00;;;;;;;11.41;75.61;100099.06;4992938;28;20254;-69
2022/12/25 06:58:37;;;;;;;5.37;4.80;;;;;;;11.49;74.78;100092.78;4992049;28;20282;-68
2022/12/25 07:01:13;;;;;;;5.43;4.93;;;;;;;11.48;74.92;100085.84;4992590;28;20258;-69
2022/12/25 07:03:42;;;;;;;6.53;5.53;;;;;;;11.64;74.41;100088.31;4992845;28;20192;-67
2022/12/25 07:06:09;;;;;;;4.73;4.33;;;;;;;11.57;74.31;100090.03;4992776;28;20200;-69
2022/12/25 07:08:35;;;;;;;5.67;4.73;;;;;;;11.80;73.91;100086.22;4992553;28;20735;-67
2022/12/25 07:11:02;;;;;;;4.77;4.33;;;;;;;11.80;73.38;100091.53;4992398;28;20661;-68
2022/12/25 07:13:29;;;;;;;5.27;4.30;;;;;;;11.80;73.70;100090.72;4992464;28;20262;-69
2022/12/25 07:15:58;;;;;;;8.47;4.63;;;;;;;11.90;73.49;100091.22;4992435;28;20211;-68
2022/12/25 07:18:24;;;;;;;4.40;4.10;;;;;;;12.09;72.46;100102.06;4992048;28;20233;-68
2022/12/25 07:20:51;;;;;;;3.87;3.67;;;;;;;12.24;71.74;100108.16;4992419;28;20286;-69
2022/12/25 07:23:18;;;;;;;5.17;4.10;;;;;;;12.27;71.28;100113.09;4992199;28;20196;-68
2022/12/25 07:25:53;;;;;;;4.77;4.13;;;;;;;12.36;71.13;100114.59;4992376;28;20195;-67
2022/12/25 07:28:20;;;;;;;4.87;4.37;;;;;;;12.69;70.36;100121.03;4992824;28;20200;-65
2022/12/25 07:30:47;;;;;;;4.63;4.00;;;;;;;12.69;69.77;100120.19;4992245;28;20244;-67
2022/12/25 07:33:15;;;;;;;5.47;4.23;;;;;;;12.86;69.11;100127.69;4992103;28;20562;-68
2022/12/25 07:35:42;;;;;;;4.13;3.83;;;;;;;13.06;69.41;100133.19;4991789;28;20204;-69
2022/12/25 07:38:08;;;;;;;4.47;4.17;;;;;;;13.13;68.27;100134.88;4992063;28;20237;-67
2022/12/25 07:40:35;;;;;;;5.97;5.47;;;;;;;13.13;68.00;100134.06;4991870;28;20201;-69
2022/12/25 07:43:02;;;;;;;4.30;3.90;;;;;;;13.15;68.14;100138.16;4992115;28;20197;-68
2022/12/25 07:45:29;;;;;;;4.00;3.70;;;;;;;13.18;67.68;100140.44;4991761;28;20190;-69
2022/12/25 07:47:55;;;;;;;3.83;3.60;;;;;;;13.30;67.98;100144.22;4991648;28;20193;-68
2022/12/25 07:50:23;;;;;;;4.53;4.13;;;;;;;13.52;67.30;100155.63;4991605;28;20259;-69
2022/12/25 07:52:50;;;;;;;4.10;3.80;;;;;;;13.67;66.17;100153.59;4992030;28;20628;-68
2022/12/25 07:55:17;;;;;;;4.33;4.00;;;;;;;13.83;66.77;100131.88;4992000;28;20195;-68
2022/12/25 07:57:44;;;;;;;4.50;3.40;;;;;;;14.14;64.55;100157.03;4992029;28;20213;-69
2022/12/25 08:00:11;;;;;;;4.17;3.77;;;;;;;13.88;65.15;100153.50;4992122;28;20234;-68
2022/12/25 08:02:38;;;;;;;4.43;4.13;;;;;;;14.09;65.28;100156.81;4992065;28;20187;-68
2022/12/25 08:05:06;;;;;;;4.07;3.77;;;;;;;13.98;65.50;100162.78;4990619;28;20245;-71
2022/12/25 08:07:35;;;;;;;6.00;5.40;;;;;;;13.89;65.36;100158.59;4997826;28;20201;-74
2022/12/25 08:10:02;;;;;;;5.40;4.90;;;;;;;13.87;65.42;100162.50;4991228;28;20298;-69
2022/12/25 08:12:28;;;;;;;5.23;4.73;;;;;;;13.88;66.41;100162.31;4991335;28;20268;-69
2022/12/25 08:14:55;;;;;;;3.77;3.40;;;;;;;13.78;66.16;100172.56;4989689;28;20215;-68
2022/12/25 08:17:22;;;;;;;4.40;4.00;;;;;;;13.75;66.55;100172.94;4991316;28;20252;-67
2022/12/25 08:19:48;;;;;;;4.87;4.07;;;;;;;13.85;66.87;100173.38;4989430;28;20368;-68
2022/12/25 08:22:15;;;;;;;4.03;3.73;;;;;;;13.99;67.26;100172.41;4990480;28;20264;-67
2022/12/25 08:24:43;;;;;;;6.10;4.40;;;;;;;14.15;66.62;100185.41;4989001;28;20211;-66
2022/12/25 08:27:10;;;;;;;4.17;3.87;;;;;;;14.13;65.95;100184.78;4987649;28;20190;-70
2022/12/25 08:29:37;;;;;;;4.53;4.13;;;;;;;14.01;66.19;100193.59;4989820;28;20656;-70
2022/12/25 08:32:04;;;;;;;4.60;4.17;;;;;;;14.15;65.85;100196.09;4985373;28;20658;-64
2022/12/25 08:34:30;;;;;;;4.70;4.00;;;;;;;14.13;65.73;100186.66;4988352;28;20682;-68
2022/12/25 08:36:57;;;;;;;3.77;3.53;;;;;;;14.10;64.64;100187.03;4987622;28;20210;-71
2022/12/25 08:39:24;;;;;;;4.10;3.90;;;;;;;14.20;63.85;100198.97;4990416;28;20706;-70
2022/12/25 08:41:52;;;;;;;7.33;6.37;;;;;;;14.28;64.29;100204.19;4989967;28;20199;-67
2022/12/25 08:44:19;;;;;;;5.00;4.50;;;;;;;14.35;63.27;100210.38;4992906;28;20293;-65
2022/12/25 08:46:45;;;;;;;6.03;4.80;;;;;;;14.53;63.64;100199.91;4990829;28;20206;-65
2022/12/25 08:49:12;;;;;;;3.90;3.60;;;;;;;14.64;64.28;100201.13;4992419;28;20749;-69
2022/12/25 08:51:39;;;;;;;3.37;3.07;;;;;;;14.53;61.31;100193.72;4992384;28;20206;-69
2022/12/25 08:54:07;;;;;;;3.80;3.40;;;;;;;14.70;60.77;100193.13;4991121;28;20214;-66
2022/12/25 08:56:35;;;;;;;5.67;4.00;;;;;;;14.82;59.39;100204.00;4992952;28;20253;-66
2022/12/25 08:59:03;;;;;;;3.27;2.93;;;;;;;14.79;59.15;100205.25;4992911;28;20313;-66
2022/12/25 09:01:30;;;;;;;5.23;3.83;;;;;;;14.85;59.89;100206.28;4993284;28;20198;-67
2022/12/25 09:03:56;;;;;;;2.93;2.73;;;;;;;14.81;59.46;100200.53;4993070;28;20245;-67
2022/12/25 09:06:23;;;;;;;3.80;3.30;;;;;;;14.77;59.40;100196.63;4993208;28;20202;-68
2022/12/25 09:08:50;;;;;;;2.90;2.70;;;;;;;14.75;59.95;100195.19;4992391;28;21037;-68
2022/12/25 09:11:18;;;;;;;4.10;2.60;;;;;;;14.91;58.74;100195.56;4991823;28;20269;-68
2022/12/25 09:13:46;;;;;;;3.87;2.97;;;;;;;14.97;58.79;100191.25;4989681;28;20725;-67
2022/12/25 09:16:17;;;;;;;4.77;3.10;;;;;;;15.27;58.67;100198.63;4991936;28;20245;-65
2022/12/25 09:18:44;;;;;;;3.50;3.20;;;;;;;15.18;57.80;100193.69;4993085;28;20694;-66
2022/12/25 09:21:13;;;;;;;2.80;2.57;;;;;;;15.49;57.54;100191.19;4992993;28;20269;-69
2022/12/25 09:23:40;;;;;;;3.80;2.73;;;;;;;15.59;55.92;100192.41;4993598;28;20202;-67
2022/12/25 09:26:08;;;;;;;3.80;3.50;;;;;;;15.63;56.20;100192.78;4994350;28;20228;-67
2022/12/25 09:28:35;;;;;;;4.77;4.27;;;;;;;15.93;54.85;100198.44;4994310;28;20202;-67
2022/12/25 09:31:02;;;;;;;3.33;2.37;;;;;;;15.69;54.85;100176.69;4994107;28;20195;-66
2022/12/25 09:33:30;;;;;;;3.73;2.87;;;;;;;16.03;53.83;100194.28;4993932;28;20218;-66
2022/12/25 09:35:58;;;;;;;4.63;4.23;;;;;;;16.12;53.46;100189.50;4994062;28;20249;-66
2022/12/25 09:38:26;;;;;;;3.50;2.80;;;;;;;16.05;53.04;100180.66;5011141;28;20260;-69
2022/12/25 09:40:59;;;;;;;4.37;2.30;;;;;;;16.12;52.98;100168.06;5013039;28;20732;-68
2022/12/25 09:43:28;;;;;;;5.17;2.67;;;;;;;16.20;51.36;100173.16;5013053;28;20182;-66
2022/12/25 09:45:56;;;;;;;2.40;2.20;;;;;;;16.24;51.84;100169.81;4993947;28;20229;-67
2022/12/25 09:48:24;;;;;;;4.27;3.60;;;;;;;16.15;52.19;100167.59;4993067;28;20226;-67
2022/12/25 09:50:59;;;;;;;5.57;3.47;;;;;;;16.15;52.03;100178.31;4993423;28;20194;-70
2022/12/25 09:53:31;;;;;;;2.73;2.50;;;;;;;16.20;52.23;100173.16;4984320;28;20236;-67
2022/12/25 09:56:04;;;;;;;3.10;2.73;;;;;;;16.27;52.41;100172.09;4993418;28;20187;-66
2022/12/25 09:58:33;;;;;;;2.83;2.47;;;;;;;16.30;52.10;100168.13;4994232;28;20218;-65
2022/12/25 10:01:06;;;;;;;3.00;2.80;;;;;;;16.52;53.29;100156.03;4992813;28;20553;-67
2022/12/25 10:03:50;;;;;;;4.40;2.90;;;;;;;16.47;52.26;100170.13;4992899;28;20191;-67
2022/12/25 10:06:22;;;;;;;2.80;2.57;;;;;;;15.97;53.17;100135.34;4993208;28;20186;-69
2022/12/25 10:09:30;;;;;;;6.87;2.17;;;;;;;15.97;52.93;100162.16;4993330;28;20186;-69
2022/12/25 10:12:09;;;;;;;3.03;2.83;;;;;;;15.98;53.04;100141.31;4992947;28;20256;-67
2022/12/25 10:15:00;;;;;;;2.17;2.03;;;;;;;15.70;53.86;100166.81;4991129;28;20226;-67
2022/12/25 10:17:41;;;;;;;2.57;2.37;;;;;;;15.72;54.06;100165.56;4992337;28;20256;-67
2022/12/25 10:20:17;;;;;;;3.73;3.43;;;;;;;15.96;54.33;100149.81;4992519;28;20242;-67
2022/12/25 10:22:51;;;;;;;3.40;3.03;;;;;;;16.26;53.23;100153.53;4993143;28;20254;-68
2022/12/25 10:25:21;;;;;;;5.47;3.20;;;;;;;16.29;52.06;100164.63;4992372;28;20187;-67
2022/12/25 10:27:51;;;;;;;6.80;3.13;;;;;;;16.09;53.19;100155.06;4992931;28;20618;-68
2022/12/25 10:30:21;;;;;;;8.10;6.10;;;;;;;16.12;53.59;100160.81;4992826;28;20253;-67
2022/12/25 10:32:49;;;;;;;3.60;2.97;;;;;;;16.49;53.67;100162.66;4993156;28;20190;-68
2022/12/25 10:35:18;;;;;;;2.70;2.50;;;;;;;16.44;53.60;100158.97;4993248;28;20195;-68
2022/12/25 10:37:55;;;;;;;2.40;2.20;;;;;;;16.21;53.89;100167.56;4993160;28;20250;-67
2022/12/25 10:40:30;;;;;;;3.40;2.63;;;;;;;16.44;51.15;100172.41;4993005;28;20261;-70
2022/12/25 10:43:03;;;;;;;1.73;1.63;;;;;;;16.66;50.31;100174.50;4993002;28;20714;-67
2022/12/25 10:45:30;;;;;;;3.03;2.00;;;;;;;16.49;50.40;100168.03;4993155;28;20250;-69
2022/12/25 10:48:04;;;;;;;3.30;1.90;;;;;;;16.55;49.94;100155.63;4992536;28;20198;-69
2022/12/25 10:50:32;;;;;;;2.83;1.77;;;;;;;16.49;49.95;100156.50;4993175;28;20198;-70
2022/12/25 10:53:04;;;;;;;4.17;2.13;;;;;;;16.59;50.78;100146.94;4993204;28;20281;-69
2022/12/25 10:55:30;;;;;;;2.83;2.10;;;;;;;16.79;49.34;100152.13;4992850;28;20191;-69
2022/12/25 10:57:58;;;;;;;4.63;4.23;;;;;;;17.03;49.08;100143.22;4992487;28;20242;-70
2022/12/25 11:00:27;;;;;;;2.20;2.00;;;;;;;17.12;49.40;100136.50;4993019;28;20233;-70
2022/12/25 11:02:54;;;;;;;2.20;1.83;;;;;;;17.20;47.93;100141.59;4992804;28;20265;-70
2022/12/25 11:05:26;;;;;;;4.97;2.60;;;;;;;17.37;47.83;100142.63;4993356;28;20327;-70
2022/12/25 11:07:54;;;;;;;2.80;2.50;;;;;;;17.48;47.59;100141.94;4992467;28;20279;-70
2022/12/25 11:10:25;;;;;;;1.80;1.70;;;;;;;17.49;46.23;100138.19;4993514;28;20202;-70
2022/12/25 11:12:53;;;;;;;2.43;2.00;;;;;;;17.33;47.11;100139.59;4992664;28;20238;-70
2022/12/25 11:15:36;;;;;;;2.60;2.27;;;;;;;17.44;46.61;100141.53;4992458;28;20257;-70
2022/12/25 11:18:03;;;;;;;4.53;1.80;;;;;;;17.36;46.85;100133.75;4992911;28;20182;-68
2022/12/25 11:20:31;;;;;;;1.87;1.47;;;;;;;17.27;46.36;100139.66;4992380;28;20235;-68
2022/12/25 11:22:57;;;;;;;1.93;1.70;;;;;;;17.17;47.31;100144.72;4992607;28;20572;-68
2022/12/25 11:25:28;;;;;;;4.97;2.57;;;;;;;17.29;46.61;100142.94;4992896;28;20277;-67
2022/12/25 11:27:59;;;;;;;2.03;1.70;;;;;;;17.26;47.15;100138.84;4992800;28;20251;-67
2022/12/25 11:30:27;;;;;;;1.37;1.27;;;;;;;17.30;46.26;100139.19;4992851;28;20643;-67
2022/12/25 11:32:55;;;;;;;1.30;1.20;;;;;;;17.19;45.00;100134.59;4992245;28;20248;-67
2022/12/25 11:35:24;;;;;;;5.13;1.70;;;;;;;17.19;44.59;100132.69;4992599;28;20217;-67
2022/12/25 11:37:52;;;;;;;1.23;1.13;;;;;;;17.11;44.66;100145.63;4992476;28;20193;-67
2022/12/25 11:40:24;;;;;;;2.03;1.53;;;;;;;16.95;45.17;100135.44;4993324;28;20226;-67
2022/12/25 11:42:55;;;;;;;2.17;2.03;;;;;;;16.86;45.69;100132.22;4992602;28;20578;-68
2022/12/25 11:45:28;;;;;;;2.10;1.90;;;;;;;16.90;45.91;100135.31;4992192;28;20182;-68
2022/12/25 11:47:58;;;;;;;2.73;1.70;;;;;;;16.98;45.25;100135.03;4992206;28;20223;-67
2022/12/25 11:50:30;;;;;;;3.33;1.40;;;;;;;16.85;44.78;100135.13;4992857;28;20213;-67
2022/12/25 11:53:01;;;;;;;1.10;1.00;;;;;;;16.85;44.81;100127.91;4992470;28;20188;-67
2022/12/25 11:55:37;;;;;;;1.70;1.57;;;;;;;16.95;44.61;100124.72;4992434;28;20191;-67
2022/12/25 11:58:13;;;;;;;3.43;1.77;;;;;;;17.15;45.63;100128.03;4992534;28;20186;-67
2022/12/25 12:00:42;;;;;;;2.57;1.00;;;;;;;16.97;44.47;100133.34;4992085;28;20653;-69
2022/12/25 12:03:16;;;;;;;2.13;1.40;;;;;;;16.81;45.43;100125.88;4992742;28;20231;-69
2022/12/25 12:05:46;;;;;;;1.50;1.40;;;;;;;16.87;45.52;100122.31;4992215;28;20643;-69
2022/12/25 12:08:14;;;;;;;2.30;1.50;;;;;;;16.93;46.09;100121.41;4992019;28;20251;-68
2022/12/25 12:10:55;;;;;;;2.97;1.67;;;;;;;17.09;45.77;100120.84;4995919;28;20198;-68
2022/12/25 12:13:37;;;;;;;2.80;1.37;;;;;;;17.03;44.50;100135.16;4995860;28;20245;-67
2022/12/25 12:16:06;;;;;;;1.80;1.70;;;;;;;16.77;45.67;100114.75;4995782;28;20280;-69
2022/12/25 12:18:33;;;;;;;2.00;1.90;;;;;;;16.88;45.77;100123.94;4996234;28;20199;-69
2022/12/25 12:21:03;;;;;;;6.20;2.37;;;;;;;16.82;46.42;100124.84;4995717;28;20234;-69
2022/12/25 12:23:32;;;;;;;2.10;1.87;;;;;;;16.69;46.46;100128.47;4995298;28;20199;-68
2022/12/25 12:26:00;;;;;;;1.97;1.87;;;;;;;16.80;45.91;100127.75;4995667;28;20278;-68
2022/12/25 12:28:33;;;;;;;2.60;2.03;;;;;;;16.87;46.04;100133.06;4995692;28;20586;-68
2022/12/25 12:31:03;;;;;;;2.43;1.90;;;;;;;16.94;46.47;100123.09;4995742;28;20186;-68
2022/12/25 12:33:34;;;;;;;2.57;2.37;;;;;;;17.00;46.14;100140.97;4995250;28;20627;-67
2022/12/25 12:36:04;;;;;;;3.50;2.47;;;;;;;16.99;46.39;100132.09;4995694;28;20612;-68
2022/12/25 12:38:32;;;;;;;2.63;2.30;;;;;;;16.82;45.79;100143.63;4995518;28;20631;-68
2022/12/25 12:41:01;;;;;;;1.50;1.40;;;;;;;16.72;45.28;100148.66;4995294;28;20706;-68
2022/12/25 12:43:34;;;;;;;3.77;1.73;;;;;;;16.73;45.85;100143.06;4995166;28;20198;-68
2022/12/25 12:46:05;;;;;;;3.23;1.77;;;;;;;16.72;45.71;100141.44;4996104;28;20246;-67
2022/12/25 12:48:40;;;;;;;2.90;1.90;;;;;;;16.61;44.92;100154.75;4995864;28;20191;-67
2022/12/25 12:51:09;;;;;;;3.70;2.30;;;;;;;16.49;45.60;100146.56;4995000;28;20191;-67
2022/12/25 12:53:38;;;;;;;5.13;2.47;;;;;;;16.45;46.31;100155.28;4994945;28;20266;-68
2022/12/25 12:56:13;;;;;;;2.43;1.80;;;;;;;16.57;46.58;100148.19;4996172;28;20285;-68
2022/12/25 12:58:47;;;;;;;3.50;2.87;;;;;;;16.53;45.96;100147.78;4995126;28;20202;-68
2022/12/25 13:01:45;;;;;;;4.80;1.73;;;;;;;16.58;45.70;100150.63;4995651;28;20228;-68
2022/12/25 13:04:49;;;;;;;3.33;2.10;;;;;;;16.51;45.54;100155.25;4995062;28;20265;-68
2022/12/25 13:07:30;;;;;;;2.60;1.90;;;;;;;16.43;45.68;100157.34;4994913;28;20190;-68
2022/12/25 13:10:10;;;;;;;2.60;2.40;;;;;;;16.41;46.38;100159.44;4994755;28;20583;-68
2022/12/25 13:12:37;;;;;;;2.00;1.70;;;;;;;16.37;45.71;100161.69;4995383;28;20190;-69
2022/12/25 13:15:12;;;;;;;1.83;1.73;;;;;;;16.43;46.15;100168.91;4994851;28;20195;-69
2022/12/25 13:17:42;;;;;;;2.20;2.10;;;;;;;16.46;46.55;100167.66;4995545;28;20195;-69
2022/12/25 13:20:20;;;;;;;3.53;2.33;;;;;;;16.42;46.80;100164.59;4994040;28;20854;-69
2022/12/25 13:22:46;;;;;;;3.63;2.40;;;;;;;16.51;46.59;100167.81;4994924;28;20194;-69
2022/12/25 13:25:19;;;;;;;4.20;2.60;;;;;;;16.46;46.91;100178.38;4994743;28;20257;-69